sensor_id;sensor_type;location;lat;lon;timestamp;P1;durP1;ratioP1;P2;durP2;ratioP2
64060;SDS011;60147;55.036;73.242;2023-08-12T00:00:16;1.88;;;1.00;;
64060;SDS011;60147;55.036;73.242;2023-08-12T00:02:45;3.08;;;1.20;;
64060;SDS011;60147;55.036;73.242;2023-08-12T00:05:11;2.00;;;1.00;;
64060;SDS011;60147;55.036;73.242;2023-08-12T00:07:37;3.30;;;1.45;;
64060;SDS011;60147;55.036;73.242;2023-08-12T00:10:04;1.95;;;0.90;;
64060;SDS011;60147;55.036;73.242;2023-08-12T00:12:36;1.65;;;0.80;;
64060;SDS011;60147;55.036;73.242;2023-08-12T00:15:03;1.95;;;1.00;;
64060;SDS011;60147;55.036;73.242;2023-08-12T00:17:30;1.90;;;0.80;;
64060;SDS011;60147;55.036;73.242;2023-08-12T00:19:56;1.40;;;1.08;;
64060;SDS011;60147;55.036;73.242;2023-08-12T00:22:22;2.50;;;1.17;;
64060;SDS011;60147;55.036;73.242;2023-08-12T00:24:49;2.45;;;1.15;;
64060;SDS011;60147;55.036;73.242;2023-08-12T00:27:15;2.53;;;1.17;;
64060;SDS011;60147;55.036;73.242;2023-08-12T00:29:41;3.42;;;1.20;;
64060;SDS011;60147;55.036;73.242;2023-08-12T00:32:08;2.40;;;1.05;;
64060;SDS011;60147;55.036;73.242;2023-08-12T00:34:34;2.50;;;1.08;;
64060;SDS011;60147;55.036;73.242;2023-08-12T00:37:00;3.42;;;1.13;;
64060;SDS011;60147;55.036;73.242;2023-08-12T00:39:25;2.85;;;1.17;;
64060;SDS011;60147;55.036;73.242;2023-08-12T00:41:51;6.18;;;1.50;;
64060;SDS011;60147;55.036;73.242;2023-08-12T00:44:19;5.38;;;1.48;;
64060;SDS011;60147;55.036;73.242;2023-08-12T00:46:45;3.58;;;1.50;;
64060;SDS011;60147;55.036;73.242;2023-08-12T00:49:11;3.08;;;1.35;;
64060;SDS011;60147;55.036;73.242;2023-08-12T00:51:39;2.00;;;1.20;;
64060;SDS011;60147;55.036;73.242;2023-08-12T00:54:06;3.17;;;1.40;;
64060;SDS011;60147;55.036;73.242;2023-08-12T00:56:35;1.85;;;1.10;;
64060;SDS011;60147;55.036;73.242;2023-08-12T00:59:01;6.93;;;1.67;;
64060;SDS011;60147;55.036;73.242;2023-08-12T01:01:28;2.78;;;1.40;;
64060;SDS011;60147;55.036;73.242;2023-08-12T01:03:55;4.57;;;1.70;;
64060;SDS011;60147;55.036;73.242;2023-08-12T01:06:22;1.85;;;1.40;;
64060;SDS011;60147;55.036;73.242;2023-08-12T01:08:48;2.80;;;1.50;;
64060;SDS011;60147;55.036;73.242;2023-08-12T01:11:21;3.38;;;1.60;;
64060;SDS011;60147;55.036;73.242;2023-08-12T01:16:51;1.80;;;1.13;;
64060;SDS011;60147;55.036;73.242;2023-08-12T01:19:29;6.40;;;1.70;;
64060;SDS011;60147;55.036;73.242;2023-08-12T01:21:55;8.23;;;2.63;;
64060;SDS011;60147;55.036;73.242;2023-08-12T01:26:52;6.75;;;2.45;;
64060;SDS011;60147;55.036;73.242;2023-08-12T01:29:18;9.05;;;2.20;;
64060;SDS011;60147;55.036;73.242;2023-08-12T01:31:46;7.28;;;2.38;;
64060;SDS011;60147;55.036;73.242;2023-08-12T01:34:16;5.00;;;1.70;;
64060;SDS011;60147;55.036;73.242;2023-08-12T01:36:45;2.63;;;1.33;;
64060;SDS011;60147;55.036;73.242;2023-08-12T01:39:12;6.47;;;2.50;;
64060;SDS011;60147;55.036;73.242;2023-08-12T01:41:38;2.58;;;1.80;;
64060;SDS011;60147;55.036;73.242;2023-08-12T01:44:05;5.88;;;1.80;;
64060;SDS011;60147;55.036;73.242;2023-08-12T01:46:31;4.75;;;2.25;;
64060;SDS011;60147;55.036;73.242;2023-08-12T01:48:57;4.07;;;1.83;;
64060;SDS011;60147;55.036;73.242;2023-08-12T01:51:23;4.43;;;2.08;;
64060;SDS011;60147;55.036;73.242;2023-08-12T01:53:49;6.57;;;2.20;;
64060;SDS011;60147;55.036;73.242;2023-08-12T01:56:16;5.40;;;2.30;;
64060;SDS011;60147;55.036;73.242;2023-08-12T01:58:42;7.68;;;2.50;;
64060;SDS011;60147;55.036;73.242;2023-08-12T02:01:08;8.77;;;2.88;;
64060;SDS011;60147;55.036;73.242;2023-08-12T02:03:34;6.68;;;2.58;;
64060;SDS011;60147;55.036;73.242;2023-08-12T02:06:00;7.60;;;2.75;;
64060;SDS011;60147;55.036;73.242;2023-08-12T02:08:25;12.20;;;3.10;;
64060;SDS011;60147;55.036;73.242;2023-08-12T02:10:52;13.88;;;3.28;;
64060;SDS011;60147;55.036;73.242;2023-08-12T02:13:18;10.57;;;2.70;;
64060;SDS011;60147;55.036;73.242;2023-08-12T02:15:45;8.38;;;3.00;;
64060;SDS011;60147;55.036;73.242;2023-08-12T02:18:11;9.98;;;2.70;;
64060;SDS011;60147;55.036;73.242;2023-08-12T02:20:37;13.63;;;3.25;;
64060;SDS011;60147;55.036;73.242;2023-08-12T02:23:03;9.70;;;3.28;;
64060;SDS011;60147;55.036;73.242;2023-08-12T02:25:30;8.20;;;2.83;;
64060;SDS011;60147;55.036;73.242;2023-08-12T02:27:56;13.02;;;3.20;;
64060;SDS011;60147;55.036;73.242;2023-08-12T02:30:22;5.05;;;2.50;;
64060;SDS011;60147;55.036;73.242;2023-08-12T02:32:48;6.13;;;2.30;;
64060;SDS011;60147;55.036;73.242;2023-08-12T02:35:16;5.43;;;2.08;;
64060;SDS011;60147;55.036;73.242;2023-08-12T02:37:42;8.70;;;3.08;;
64060;SDS011;60147;55.036;73.242;2023-08-12T02:40:08;7.57;;;2.45;;
64060;SDS011;60147;55.036;73.242;2023-08-12T02:42:34;14.48;;;3.22;;
64060;SDS011;60147;55.036;73.242;2023-08-12T02:45:00;10.75;;;2.90;;
64060;SDS011;60147;55.036;73.242;2023-08-12T02:47:26;15.18;;;2.80;;
64060;SDS011;60147;55.036;73.242;2023-08-12T02:49:52;9.00;;;2.60;;
64060;SDS011;60147;55.036;73.242;2023-08-12T02:52:18;14.65;;;2.92;;
64060;SDS011;60147;55.036;73.242;2023-08-12T02:54:44;10.27;;;2.40;;
64060;SDS011;60147;55.036;73.242;2023-08-12T02:57:10;6.03;;;2.17;;
64060;SDS011;60147;55.036;73.242;2023-08-12T02:59:36;5.68;;;2.30;;
64060;SDS011;60147;55.036;73.242;2023-08-12T03:02:01;7.07;;;2.53;;
64060;SDS011;60147;55.036;73.242;2023-08-12T03:04:28;4.90;;;2.05;;
64060;SDS011;60147;55.036;73.242;2023-08-12T03:06:54;5.43;;;2.40;;
64060;SDS011;60147;55.036;73.242;2023-08-12T03:09:20;6.55;;;2.42;;
64060;SDS011;60147;55.036;73.242;2023-08-12T03:11:47;6.68;;;2.33;;
64060;SDS011;60147;55.036;73.242;2023-08-12T03:14:14;6.43;;;2.17;;
64060;SDS011;60147;55.036;73.242;2023-08-12T03:16:40;7.53;;;2.42;;
64060;SDS011;60147;55.036;73.242;2023-08-12T03:19:07;11.15;;;2.63;;
64060;SDS011;60147;55.036;73.242;2023-08-12T03:21:33;10.00;;;2.53;;
64060;SDS011;60147;55.036;73.242;2023-08-12T03:24:00;11.38;;;2.97;;
64060;SDS011;60147;55.036;73.242;2023-08-12T03:26:26;7.05;;;2.60;;
64060;SDS011;60147;55.036;73.242;2023-08-12T03:28:54;5.50;;;2.20;;
64060;SDS011;60147;55.036;73.242;2023-08-12T03:31:20;6.80;;;2.00;;
64060;SDS011;60147;55.036;73.242;2023-08-12T03:33:47;5.65;;;1.90;;
64060;SDS011;60147;55.036;73.242;2023-08-12T03:36:14;4.63;;;1.88;;
64060;SDS011;60147;55.036;73.242;2023-08-12T03:38:40;2.75;;;1.50;;
64060;SDS011;60147;55.036;73.242;2023-08-12T03:41:11;3.58;;;1.50;;
64060;SDS011;60147;55.036;73.242;2023-08-12T03:43:37;5.22;;;1.60;;
64060;SDS011;60147;55.036;73.242;2023-08-12T03:46:04;3.33;;;1.60;;
64060;SDS011;60147;55.036;73.242;2023-08-12T03:48:31;7.53;;;1.83;;
64060;SDS011;60147;55.036;73.242;2023-08-12T03:50:58;3.60;;;1.25;;
64060;SDS011;60147;55.036;73.242;2023-08-12T03:53:24;3.65;;;1.45;;
64060;SDS011;60147;55.036;73.242;2023-08-12T03:55:51;3.45;;;1.30;;
64060;SDS011;60147;55.036;73.242;2023-08-12T03:58:18;7.13;;;1.70;;
64060;SDS011;60147;55.036;73.242;2023-08-12T04:00:45;7.53;;;1.85;;
64060;SDS011;60147;55.036;73.242;2023-08-12T04:03:14;3.38;;;1.52;;
64060;SDS011;60147;55.036;73.242;2023-08-12T04:05:49;3.63;;;1.70;;
64060;SDS011;60147;55.036;73.242;2023-08-12T04:08:16;2.58;;;1.20;;
64060;SDS011;60147;55.036;73.242;2023-08-12T04:10:44;4.05;;;1.17;;
64060;SDS011;60147;55.036;73.242;2023-08-12T04:13:10;6.25;;;2.88;;
64060;SDS011;60147;55.036;73.242;2023-08-12T04:15:36;3.38;;;1.65;;
64060;SDS011;60147;55.036;73.242;2023-08-12T04:18:01;4.28;;;1.60;;
64060;SDS011;60147;55.036;73.242;2023-08-12T04:20:28;6.10;;;1.98;;
64060;SDS011;60147;55.036;73.242;2023-08-12T04:22:54;9.15;;;3.13;;
64060;SDS011;60147;55.036;73.242;2023-08-12T04:25:21;4.72;;;1.50;;
64060;SDS011;60147;55.036;73.242;2023-08-12T04:27:48;3.80;;;1.70;;
64060;SDS011;60147;55.036;73.242;2023-08-12T04:30:18;11.02;;;2.08;;
64060;SDS011;60147;55.036;73.242;2023-08-12T04:32:44;9.07;;;2.30;;
64060;SDS011;60147;55.036;73.242;2023-08-12T04:35:11;11.05;;;2.22;;
64060;SDS011;60147;55.036;73.242;2023-08-12T04:37:38;10.90;;;1.98;;
64060;SDS011;60147;55.036;73.242;2023-08-12T04:40:05;5.15;;;2.20;;
64060;SDS011;60147;55.036;73.242;2023-08-12T04:42:33;7.85;;;1.70;;
64060;SDS011;60147;55.036;73.242;2023-08-12T04:44:59;7.50;;;1.65;;
64060;SDS011;60147;55.036;73.242;2023-08-12T04:47:29;4.90;;;1.70;;
64060;SDS011;60147;55.036;73.242;2023-08-12T04:49:54;7.47;;;1.58;;
64060;SDS011;60147;55.036;73.242;2023-08-12T04:52:21;3.22;;;1.35;;
64060;SDS011;60147;55.036;73.242;2023-08-12T04:54:52;2.63;;;1.50;;
64060;SDS011;60147;55.036;73.242;2023-08-12T04:57:19;7.00;;;1.67;;
64060;SDS011;60147;55.036;73.242;2023-08-12T04:59:46;5.53;;;1.75;;
64060;SDS011;60147;55.036;73.242;2023-08-12T05:02:13;4.15;;;1.60;;
64060;SDS011;60147;55.036;73.242;2023-08-12T05:04:39;3.05;;;1.33;;
64060;SDS011;60147;55.036;73.242;2023-08-12T05:07:06;4.93;;;1.50;;
64060;SDS011;60147;55.036;73.242;2023-08-12T05:09:32;5.22;;;1.83;;
64060;SDS011;60147;55.036;73.242;2023-08-12T05:11:58;3.03;;;1.60;;
64060;SDS011;60147;55.036;73.242;2023-08-12T05:14:24;5.90;;;1.58;;
64060;SDS011;60147;55.036;73.242;2023-08-12T05:16:50;5.13;;;1.58;;
64060;SDS011;60147;55.036;73.242;2023-08-12T05:19:17;3.97;;;1.73;;
64060;SDS011;60147;55.036;73.242;2023-08-12T05:21:43;5.32;;;1.65;;
64060;SDS011;60147;55.036;73.242;2023-08-12T05:24:09;5.28;;;1.50;;
64060;SDS011;60147;55.036;73.242;2023-08-12T05:26:37;3.17;;;1.33;;
64060;SDS011;60147;55.036;73.242;2023-08-12T05:29:02;3.75;;;1.38;;
64060;SDS011;60147;55.036;73.242;2023-08-12T05:31:29;1.92;;;1.20;;
64060;SDS011;60147;55.036;73.242;2023-08-12T05:33:55;6.18;;;1.90;;
64060;SDS011;60147;55.036;73.242;2023-08-12T05:36:20;15.15;;;4.80;;
64060;SDS011;60147;55.036;73.242;2023-08-12T05:38:46;11.10;;;3.00;;
64060;SDS011;60147;55.036;73.242;2023-08-12T05:41:12;4.90;;;1.70;;
64060;SDS011;60147;55.036;73.242;2023-08-12T05:43:38;5.38;;;2.08;;
64060;SDS011;60147;55.036;73.242;2023-08-12T05:46:04;9.27;;;1.80;;
64060;SDS011;60147;55.036;73.242;2023-08-12T05:48:30;13.98;;;6.93;;
64060;SDS011;60147;55.036;73.242;2023-08-12T05:50:56;4.95;;;3.42;;
64060;SDS011;60147;55.036;73.242;2023-08-12T05:53:22;6.95;;;2.25;;
64060;SDS011;60147;55.036;73.242;2023-08-12T05:55:48;3.10;;;1.73;;
64060;SDS011;60147;55.036;73.242;2023-08-12T05:58:14;3.90;;;1.70;;
64060;SDS011;60147;55.036;73.242;2023-08-12T06:00:40;3.80;;;1.40;;
64060;SDS011;60147;55.036;73.242;2023-08-12T06:03:11;7.35;;;2.03;;
64060;SDS011;60147;55.036;73.242;2023-08-12T06:05:37;4.25;;;2.08;;
64060;SDS011;60147;55.036;73.242;2023-08-12T06:08:03;7.63;;;1.60;;
64060;SDS011;60147;55.036;73.242;2023-08-12T06:10:29;4.22;;;1.40;;
64060;SDS011;60147;55.036;73.242;2023-08-12T06:12:55;8.40;;;2.50;;
64060;SDS011;60147;55.036;73.242;2023-08-12T06:15:21;9.65;;;1.90;;
64060;SDS011;60147;55.036;73.242;2023-08-12T06:17:47;7.25;;;1.58;;
64060;SDS011;60147;55.036;73.242;2023-08-12T06:20:13;5.25;;;1.70;;
64060;SDS011;60147;55.036;73.242;2023-08-12T06:22:39;6.55;;;1.80;;
64060;SDS011;60147;55.036;73.242;2023-08-12T06:25:05;4.85;;;1.63;;
64060;SDS011;60147;55.036;73.242;2023-08-12T06:27:31;2.45;;;1.40;;
64060;SDS011;60147;55.036;73.242;2023-08-12T06:29:56;3.63;;;1.70;;
64060;SDS011;60147;55.036;73.242;2023-08-12T06:32:22;11.85;;;5.22;;
64060;SDS011;60147;55.036;73.242;2023-08-12T06:34:48;6.13;;;2.17;;
64060;SDS011;60147;55.036;73.242;2023-08-12T06:37:14;4.90;;;1.73;;
64060;SDS011;60147;55.036;73.242;2023-08-12T06:39:40;5.63;;;2.03;;
64060;SDS011;60147;55.036;73.242;2023-08-12T06:42:06;5.05;;;1.60;;
64060;SDS011;60147;55.036;73.242;2023-08-12T06:44:32;3.83;;;1.80;;
64060;SDS011;60147;55.036;73.242;2023-08-12T06:46:58;4.65;;;1.85;;
64060;SDS011;60147;55.036;73.242;2023-08-12T06:49:24;4.78;;;1.85;;
64060;SDS011;60147;55.036;73.242;2023-08-12T06:51:50;3.60;;;1.70;;
64060;SDS011;60147;55.036;73.242;2023-08-12T06:54:16;76.00;;;51.00;;
64060;SDS011;60147;55.036;73.242;2023-08-12T06:56:42;11.82;;;3.10;;
64060;SDS011;60147;55.036;73.242;2023-08-12T06:59:08;8.50;;;3.83;;
64060;SDS011;60147;55.036;73.242;2023-08-12T07:01:34;5.50;;;3.47;;
64060;SDS011;60147;55.036;73.242;2023-08-12T07:04:01;8.02;;;2.88;;
64060;SDS011;60147;55.036;73.242;2023-08-12T07:06:26;4.75;;;2.50;;
64060;SDS011;60147;55.036;73.242;2023-08-12T07:08:52;8.00;;;2.13;;
64060;SDS011;60147;55.036;73.242;2023-08-12T07:11:19;6.07;;;1.73;;
64060;SDS011;60147;55.036;73.242;2023-08-12T07:13:45;6.55;;;1.98;;
64060;SDS011;60147;55.036;73.242;2023-08-12T07:16:12;5.82;;;1.50;;
64060;SDS011;60147;55.036;73.242;2023-08-12T07:18:38;3.55;;;1.42;;
64060;SDS011;60147;55.036;73.242;2023-08-12T07:21:05;7.70;;;1.98;;
64060;SDS011;60147;55.036;73.242;2023-08-12T07:23:30;3.40;;;1.45;;
64060;SDS011;60147;55.036;73.242;2023-08-12T07:25:56;4.03;;;1.58;;
64060;SDS011;60147;55.036;73.242;2023-08-12T07:28:22;3.80;;;1.55;;
64060;SDS011;60147;55.036;73.242;2023-08-12T07:30:48;6.43;;;1.92;;
64060;SDS011;60147;55.036;73.242;2023-08-12T07:33:15;3.95;;;1.60;;
64060;SDS011;60147;55.036;73.242;2023-08-12T07:35:41;5.63;;;1.38;;
64060;SDS011;60147;55.036;73.242;2023-08-12T07:38:07;9.57;;;1.92;;
64060;SDS011;60147;55.036;73.242;2023-08-12T07:40:33;4.13;;;1.50;;
64060;SDS011;60147;55.036;73.242;2023-08-12T07:42:59;3.75;;;1.45;;
64060;SDS011;60147;55.036;73.242;2023-08-12T07:45:25;7.43;;;1.50;;
64060;SDS011;60147;55.036;73.242;2023-08-12T07:47:51;7.00;;;1.67;;
64060;SDS011;60147;55.036;73.242;2023-08-12T07:50:17;2.13;;;1.20;;
64060;SDS011;60147;55.036;73.242;2023-08-12T07:52:43;4.07;;;1.50;;
64060;SDS011;60147;55.036;73.242;2023-08-12T07:55:09;6.75;;;1.50;;
64060;SDS011;60147;55.036;73.242;2023-08-12T07:57:35;6.82;;;1.35;;
64060;SDS011;60147;55.036;73.242;2023-08-12T08:00:01;5.03;;;1.48;;
64060;SDS011;60147;55.036;73.242;2023-08-12T08:02:30;5.28;;;1.40;;
64060;SDS011;60147;55.036;73.242;2023-08-12T08:04:56;3.30;;;1.20;;
64060;SDS011;60147;55.036;73.242;2023-08-12T08:07:23;5.50;;;1.48;;
64060;SDS011;60147;55.036;73.242;2023-08-12T08:09:50;7.80;;;1.67;;
64060;SDS011;60147;55.036;73.242;2023-08-12T08:12:16;8.25;;;2.42;;
64060;SDS011;60147;55.036;73.242;2023-08-12T08:14:42;6.45;;;2.22;;
64060;SDS011;60147;55.036;73.242;2023-08-12T08:17:09;4.60;;;1.52;;
64060;SDS011;60147;55.036;73.242;2023-08-12T08:19:35;8.43;;;1.70;;
64060;SDS011;60147;55.036;73.242;2023-08-12T08:22:01;12.35;;;2.67;;
64060;SDS011;60147;55.036;73.242;2023-08-12T08:24:27;10.10;;;3.42;;
64060;SDS011;60147;55.036;73.242;2023-08-12T08:26:53;8.77;;;2.92;;
64060;SDS011;60147;55.036;73.242;2023-08-12T08:29:19;10.52;;;2.40;;
64060;SDS011;60147;55.036;73.242;2023-08-12T08:31:45;8.45;;;2.42;;
64060;SDS011;60147;55.036;73.242;2023-08-12T08:34:11;12.25;;;3.03;;
64060;SDS011;60147;55.036;73.242;2023-08-12T08:36:37;14.82;;;2.80;;
64060;SDS011;60147;55.036;73.242;2023-08-12T08:39:03;9.77;;;2.15;;
64060;SDS011;60147;55.036;73.242;2023-08-12T08:41:30;6.82;;;2.50;;
64060;SDS011;60147;55.036;73.242;2023-08-12T08:43:56;9.90;;;2.33;;
64060;SDS011;60147;55.036;73.242;2023-08-12T08:46:25;14.10;;;2.03;;
64060;SDS011;60147;55.036;73.242;2023-08-12T08:48:52;6.68;;;2.00;;
64060;SDS011;60147;55.036;73.242;2023-08-12T08:51:19;10.45;;;1.92;;
64060;SDS011;60147;55.036;73.242;2023-08-12T08:53:45;8.32;;;2.00;;
64060;SDS011;60147;55.036;73.242;2023-08-12T08:56:11;9.93;;;2.50;;
64060;SDS011;60147;55.036;73.242;2023-08-12T08:58:38;5.30;;;1.80;;
64060;SDS011;60147;55.036;73.242;2023-08-12T09:01:04;8.98;;;1.90;;
64060;SDS011;60147;55.036;73.242;2023-08-12T09:03:32;7.53;;;2.40;;
64060;SDS011;60147;55.036;73.242;2023-08-12T09:05:59;7.45;;;2.10;;
64060;SDS011;60147;55.036;73.242;2023-08-12T09:08:25;6.15;;;1.95;;
64060;SDS011;60147;55.036;73.242;2023-08-12T09:10:52;6.88;;;2.20;;
64060;SDS011;60147;55.036;73.242;2023-08-12T09:13:18;9.68;;;2.08;;
64060;SDS011;60147;55.036;73.242;2023-08-12T09:15:44;9.77;;;3.13;;
64060;SDS011;60147;55.036;73.242;2023-08-12T09:18:10;9.02;;;2.10;;
64060;SDS011;60147;55.036;73.242;2023-08-12T09:20:36;10.40;;;3.25;;
64060;SDS011;60147;55.036;73.242;2023-08-12T09:23:02;11.52;;;3.03;;
64060;SDS011;60147;55.036;73.242;2023-08-12T09:25:31;16.00;;;7.50;;
64060;SDS011;60147;55.036;73.242;2023-08-12T09:28:00;5.20;;;1.70;;
64060;SDS011;60147;55.036;73.242;2023-08-12T09:30:29;10.73;;;2.85;;
64060;SDS011;60147;55.036;73.242;2023-08-12T09:33:00;6.55;;;2.58;;
64060;SDS011;60147;55.036;73.242;2023-08-12T09:35:35;10.07;;;2.40;;
64060;SDS011;60147;55.036;73.242;2023-08-12T09:38:10;8.38;;;2.33;;
64060;SDS011;60147;55.036;73.242;2023-08-12T09:40:37;10.82;;;3.05;;
64060;SDS011;60147;55.036;73.242;2023-08-12T09:43:03;6.55;;;2.22;;
64060;SDS011;60147;55.036;73.242;2023-08-12T09:45:30;5.18;;;2.20;;
64060;SDS011;60147;55.036;73.242;2023-08-12T09:47:57;7.03;;;2.33;;
64060;SDS011;60147;55.036;73.242;2023-08-12T09:50:23;4.80;;;2.40;;
64060;SDS011;60147;55.036;73.242;2023-08-12T09:52:51;10.40;;;2.40;;
64060;SDS011;60147;55.036;73.242;2023-08-12T09:55:17;10.45;;;2.40;;
64060;SDS011;60147;55.036;73.242;2023-08-12T09:57:43;10.48;;;3.63;;
64060;SDS011;60147;55.036;73.242;2023-08-12T10:00:10;9.05;;;3.17;;
64060;SDS011;60147;55.036;73.242;2023-08-12T10:02:44;9.38;;;2.35;;
64060;SDS011;60147;55.036;73.242;2023-08-12T10:05:12;6.53;;;1.88;;
64060;SDS011;60147;55.036;73.242;2023-08-12T10:07:39;5.93;;;1.63;;
64060;SDS011;60147;55.036;73.242;2023-08-12T10:10:06;9.20;;;2.50;;
64060;SDS011;60147;55.036;73.242;2023-08-12T10:12:33;7.07;;;2.55;;
64060;SDS011;60147;55.036;73.242;2023-08-12T10:14:59;10.43;;;2.88;;
64060;SDS011;60147;55.036;73.242;2023-08-12T10:17:26;6.45;;;2.58;;
64060;SDS011;60147;55.036;73.242;2023-08-12T10:19:55;6.57;;;2.42;;
64060;SDS011;60147;55.036;73.242;2023-08-12T10:22:24;8.65;;;2.42;;
64060;SDS011;60147;55.036;73.242;2023-08-12T10:24:51;8.77;;;1.85;;
64060;SDS011;60147;55.036;73.242;2023-08-12T10:27:17;10.73;;;2.45;;
64060;SDS011;60147;55.036;73.242;2023-08-12T10:29:43;11.38;;;4.78;;
64060;SDS011;60147;55.036;73.242;2023-08-12T10:32:10;7.43;;;2.88;;
64060;SDS011;60147;55.036;73.242;2023-08-12T10:34:36;10.40;;;3.17;;
64060;SDS011;60147;55.036;73.242;2023-08-12T10:37:02;4.88;;;2.78;;
64060;SDS011;60147;55.036;73.242;2023-08-12T10:39:29;7.45;;;2.58;;
64060;SDS011;60147;55.036;73.242;2023-08-12T10:41:56;12.40;;;3.17;;
64060;SDS011;60147;55.036;73.242;2023-08-12T10:44:38;14.73;;;3.58;;
64060;SDS011;60147;55.036;73.242;2023-08-12T10:47:07;7.90;;;2.20;;
64060;SDS011;60147;55.036;73.242;2023-08-12T10:49:37;8.93;;;1.85;;
64060;SDS011;60147;55.036;73.242;2023-08-12T10:52:03;9.27;;;2.40;;
64060;SDS011;60147;55.036;73.242;2023-08-12T10:54:29;7.78;;;1.60;;
64060;SDS011;60147;55.036;73.242;2023-08-12T11:02:28;10.10;;;2.17;;
64060;SDS011;60147;55.036;73.242;2023-08-12T11:04:55;18.63;;;4.63;;
64060;SDS011;60147;55.036;73.242;2023-08-12T11:07:31;20.65;;;6.22;;
64060;SDS011;60147;55.036;73.242;2023-08-12T11:10:05;11.77;;;3.25;;
64060;SDS011;60147;55.036;73.242;2023-08-12T11:12:32;6.05;;;2.25;;
64060;SDS011;60147;55.036;73.242;2023-08-12T11:14:59;12.07;;;5.07;;
64060;SDS011;60147;55.036;73.242;2023-08-12T11:17:29;9.80;;;3.00;;
64060;SDS011;60147;55.036;73.242;2023-08-12T11:19:57;10.05;;;3.10;;
64060;SDS011;60147;55.036;73.242;2023-08-12T11:22:24;13.85;;;2.58;;
64060;SDS011;60147;55.036;73.242;2023-08-12T11:24:50;8.65;;;3.28;;
64060;SDS011;60147;55.036;73.242;2023-08-12T11:27:17;10.38;;;4.45;;
64060;SDS011;60147;55.036;73.242;2023-08-12T11:29:43;11.77;;;4.43;;
64060;SDS011;60147;55.036;73.242;2023-08-12T11:32:09;19.30;;;5.53;;
64060;SDS011;60147;55.036;73.242;2023-08-12T11:34:35;14.18;;;3.42;;
64060;SDS011;60147;55.036;73.242;2023-08-12T11:37:02;10.60;;;3.28;;
64060;SDS011;60147;55.036;73.242;2023-08-12T11:39:28;11.95;;;4.10;;
64060;SDS011;60147;55.036;73.242;2023-08-12T11:41:55;11.55;;;4.45;;
64060;SDS011;60147;55.036;73.242;2023-08-12T11:44:21;11.02;;;3.22;;
64060;SDS011;60147;55.036;73.242;2023-08-12T11:46:47;12.68;;;5.30;;
64060;SDS011;60147;55.036;73.242;2023-08-12T11:49:13;21.70;;;5.43;;
64060;SDS011;60147;55.036;73.242;2023-08-12T11:51:39;9.40;;;3.10;;
64060;SDS011;60147;55.036;73.242;2023-08-12T11:54:06;9.98;;;2.20;;
64060;SDS011;60147;55.036;73.242;2023-08-12T11:56:32;21.33;;;7.97;;
64060;SDS011;60147;55.036;73.242;2023-08-12T11:58:58;74.85;;;31.05;;
64060;SDS011;60147;55.036;73.242;2023-08-12T12:01:24;46.78;;;19.38;;
64060;SDS011;60147;55.036;73.242;2023-08-12T12:03:53;31.75;;;13.20;;
64060;SDS011;60147;55.036;73.242;2023-08-12T12:06:32;22.70;;;9.57;;
64060;SDS011;60147;55.036;73.242;2023-08-12T12:09:05;18.23;;;8.73;;
64060;SDS011;60147;55.036;73.242;2023-08-12T12:11:32;17.45;;;8.35;;
64060;SDS011;60147;55.036;73.242;2023-08-12T12:14:01;32.47;;;12.50;;
64060;SDS011;60147;55.036;73.242;2023-08-12T12:17:06;28.67;;;10.95;;
64060;SDS011;60147;55.036;73.242;2023-08-12T12:19:22;28.90;;;12.30;;
64060;SDS011;60147;55.036;73.242;2023-08-12T12:21:49;30.83;;;11.45;;
64060;SDS011;60147;55.036;73.242;2023-08-12T12:24:15;30.60;;;10.88;;
64060;SDS011;60147;55.036;73.242;2023-08-12T12:26:41;13.00;;;4.72;;
64060;SDS011;60147;55.036;73.242;2023-08-12T12:29:08;23.17;;;12.55;;
64060;SDS011;60147;55.036;73.242;2023-08-12T12:31:37;15.25;;;7.00;;
64060;SDS011;60147;55.036;73.242;2023-08-12T12:34:03;29.50;;;10.00;;
64060;SDS011;60147;55.036;73.242;2023-08-12T12:36:32;29.92;;;10.45;;
64060;SDS011;60147;55.036;73.242;2023-08-12T12:38:59;27.02;;;10.48;;
64060;SDS011;60147;55.036;73.242;2023-08-12T12:41:25;11.45;;;5.97;;
64060;SDS011;60147;55.036;73.242;2023-08-12T12:43:51;18.10;;;6.75;;
64060;SDS011;60147;55.036;73.242;2023-08-12T12:46:16;15.65;;;6.68;;
64060;SDS011;60147;55.036;73.242;2023-08-12T12:48:43;32.65;;;13.43;;
64060;SDS011;60147;55.036;73.242;2023-08-12T12:51:09;14.98;;;6.47;;
64060;SDS011;60147;55.036;73.242;2023-08-12T12:53:34;17.42;;;8.90;;
64060;SDS011;60147;55.036;73.242;2023-08-12T12:56:00;20.35;;;6.70;;
64060;SDS011;60147;55.036;73.242;2023-08-12T12:58:33;16.52;;;7.95;;
64060;SDS011;60147;55.036;73.242;2023-08-12T13:00:59;24.98;;;11.30;;
64060;SDS011;60147;55.036;73.242;2023-08-12T13:03:25;24.60;;;11.77;;
64060;SDS011;60147;55.036;73.242;2023-08-12T13:05:51;26.60;;;12.57;;
64060;SDS011;60147;55.036;73.242;2023-08-12T13:08:18;24.08;;;10.70;;
64060;SDS011;60147;55.036;73.242;2023-08-12T13:10:45;38.47;;;15.13;;
64060;SDS011;60147;55.036;73.242;2023-08-12T13:13:12;38.95;;;15.15;;
64060;SDS011;60147;55.036;73.242;2023-08-12T13:15:38;27.75;;;13.15;;
64060;SDS011;60147;55.036;73.242;2023-08-12T13:18:04;19.85;;;9.60;;
64060;SDS011;60147;55.036;73.242;2023-08-12T13:20:30;24.92;;;8.15;;
64060;SDS011;60147;55.036;73.242;2023-08-12T13:22:56;23.42;;;8.95;;
64060;SDS011;60147;55.036;73.242;2023-08-12T13:25:22;26.83;;;9.88;;
64060;SDS011;60147;55.036;73.242;2023-08-12T13:27:47;16.60;;;5.45;;
64060;SDS011;60147;55.036;73.242;2023-08-12T13:30:13;13.43;;;5.82;;
64060;SDS011;60147;55.036;73.242;2023-08-12T13:32:39;15.80;;;6.85;;
64060;SDS011;60147;55.036;73.242;2023-08-12T13:35:05;24.17;;;14.48;;
64060;SDS011;60147;55.036;73.242;2023-08-12T13:37:32;82.18;;;50.80;;
64060;SDS011;60147;55.036;73.242;2023-08-12T13:39:58;76.18;;;52.45;;
64060;SDS011;60147;55.036;73.242;2023-08-12T13:42:23;19.80;;;10.00;;
64060;SDS011;60147;55.036;73.242;2023-08-12T13:44:49;21.98;;;13.45;;
64060;SDS011;60147;55.036;73.242;2023-08-12T13:47:15;40.08;;;27.42;;
64060;SDS011;60147;55.036;73.242;2023-08-12T13:49:41;29.90;;;17.30;;
64060;SDS011;60147;55.036;73.242;2023-08-12T13:52:07;16.27;;;12.05;;
64060;SDS011;60147;55.036;73.242;2023-08-12T13:54:33;22.75;;;13.75;;
64060;SDS011;60147;55.036;73.242;2023-08-12T13:56:59;9.65;;;7.90;;
64060;SDS011;60147;55.036;73.242;2023-08-12T13:59:25;18.45;;;6.72;;
64060;SDS011;60147;55.036;73.242;2023-08-12T14:01:51;17.08;;;6.15;;
64060;SDS011;60147;55.036;73.242;2023-08-12T14:04:17;20.40;;;6.57;;
64060;SDS011;60147;55.036;73.242;2023-08-12T14:06:42;17.08;;;5.18;;
64060;SDS011;60147;55.036;73.242;2023-08-12T14:09:09;15.55;;;5.57;;
64060;SDS011;60147;55.036;73.242;2023-08-12T14:11:36;19.88;;;5.68;;
64060;SDS011;60147;55.036;73.242;2023-08-12T14:14:02;14.68;;;4.65;;
64060;SDS011;60147;55.036;73.242;2023-08-12T14:16:29;18.60;;;5.07;;
64060;SDS011;60147;55.036;73.242;2023-08-12T14:18:55;21.95;;;6.30;;
64060;SDS011;60147;55.036;73.242;2023-08-12T14:21:21;43.47;;;28.15;;
64060;SDS011;60147;55.036;73.242;2023-08-12T14:23:47;55.10;;;40.25;;
64060;SDS011;60147;55.036;73.242;2023-08-12T14:26:12;45.45;;;29.73;;
64060;SDS011;60147;55.036;73.242;2023-08-12T14:28:38;32.58;;;25.85;;
64060;SDS011;60147;55.036;73.242;2023-08-12T14:31:04;36.25;;;26.95;;
64060;SDS011;60147;55.036;73.242;2023-08-12T14:33:30;27.17;;;22.42;;
64060;SDS011;60147;55.036;73.242;2023-08-12T14:35:59;37.58;;;29.83;;